createdAt,value
2018-03-17T00:00:16.331Z,5.20
2018-03-17T00:02:50.864Z,5.20
2018-03-17T00:05:23.319Z,5.20
2018-03-17T00:07:58.012Z,5.20
2018-03-17T00:10:26.543Z,5.20
2018-03-17T00:12:53.624Z,5.20
2018-03-17T00:15:22.375Z,5.20
2018-03-17T00:17:50.079Z,5.20
2018-03-17T00:20:17.899Z,5.20
2018-03-17T00:22:46.307Z,5.10
2018-03-17T00:25:33.461Z,5.10
2018-03-17T00:28:00.719Z,5.10
2018-03-17T00:30:29.669Z,5.20
2018-03-17T00:32:56.591Z,5.00
2018-03-17T00:35:25.551Z,4.90
2018-03-17T00:37:54.363Z,4.90
2018-03-17T00:40:20.980Z,4.90
2018-03-17T00:42:47.675Z,4.80
2018-03-17T00:45:15.395Z,4.70
2018-03-17T00:47:54.271Z,4.70
2018-03-17T00:50:27.407Z,4.70
2018-03-17T00:52:59.095Z,4.70
2018-03-17T00:55:29.965Z,4.60
2018-03-17T00:58:01.257Z,4.50
2018-03-17T01:00:32.679Z,4.30
2018-03-17T01:03:04.248Z,4.20
2018-03-17T01:05:31.036Z,4.10
2018-03-17T01:08:00.987Z,4.00
2018-03-17T01:10:39.436Z,3.90
2018-03-17T01:13:23.813Z,3.90
2018-03-17T01:15:56.419Z,3.90
2018-03-17T01:18:46.875Z,3.90
2018-03-17T01:21:15.351Z,3.70
2018-03-17T01:23:48.754Z,3.60
2018-03-17T01:26:19.135Z,3.60
2018-03-17T01:28:52.775Z,3.50
2018-03-17T01:31:20.283Z,3.50
2018-03-17T01:33:49.275Z,3.50
2018-03-17T01:36:15.996Z,3.50
2018-03-17T01:38:50.289Z,3.40
2018-03-17T01:41:17.440Z,3.40
2018-03-17T01:43:48.153Z,3.40
2018-03-17T01:46:15.143Z,3.40
2018-03-17T01:48:45.126Z,3.20
2018-03-17T01:51:15.084Z,3.20
2018-03-17T01:54:02.784Z,3.10
2018-03-17T01:56:32.376Z,3.00
2018-03-17T01:59:07.996Z,2.80
2018-03-17T02:01:38.191Z,3.00
2018-03-17T02:04:06.195Z,3.00
2018-03-17T02:06:39.093Z,2.90
2018-03-17T02:09:11.799Z,2.80
2018-03-17T02:11:40.487Z,2.80
2018-03-17T02:14:14.899Z,2.70
2018-03-17T02:16:45.972Z,2.70
2018-03-17T02:19:12.858Z,2.60
2018-03-17T02:21:41.111Z,2.50
2018-03-17T02:24:13.051Z,2.40
2018-03-17T02:26:41.008Z,2.40
2018-03-17T02:29:20.968Z,2.40
2018-03-17T02:31:54.095Z,2.30
2018-03-17T02:34:23.063Z,2.30
2018-03-17T02:36:55.656Z,2.20
2018-03-17T02:39:34.531Z,2.10
2018-03-17T02:42:02.578Z,2.20
2018-03-17T02:44:31.487Z,2.10
2018-03-17T02:47:03.359Z,2.10
2018-03-17T02:49:31.053Z,2.20
2018-03-17T02:52:02.750Z,2.20
2018-03-17T02:54:33.431Z,2.20
2018-03-17T02:57:03.100Z,2.20
2018-03-17T02:59:35.316Z,2.20
2018-03-17T03:02:02.819Z,2.10
2018-03-17T03:04:33.211Z,2.00
2018-03-17T03:07:04.132Z,1.90
2018-03-17T03:09:32.770Z,2.00
2018-03-17T03:12:01.011Z,2.00
2018-03-17T03:14:33.620Z,2.00
2018-03-17T03:17:04.291Z,1.90
2018-03-17T03:19:31.891Z,2.00
2018-03-17T03:22:00.960Z,1.90
2018-03-17T03:24:33.318Z,1.90
2018-03-17T03:27:06.184Z,1.90
2018-03-17T03:29:36.007Z,1.90
2018-03-17T03:32:09.272Z,1.90
2018-03-17T03:34:37.712Z,1.90
2018-03-17T03:37:04.306Z,1.90
2018-03-17T03:39:35.616Z,1.90
2018-03-17T03:42:26.955Z,1.90
2018-03-17T03:45:00.772Z,1.90
2018-03-17T03:47:28.495Z,1.90
2018-03-17T03:50:03.655Z,1.90
2018-03-17T03:52:37.487Z,1.90
2018-03-17T03:55:11.039Z,1.90
2018-03-17T03:57:53.210Z,1.90
2018-03-17T04:00:20.567Z,1.90
2018-03-17T04:03:08.279Z,1.90
2018-03-17T04:05:35.376Z,1.90
2018-03-17T04:08:01.891Z,1.90
2018-03-17T04:10:32.156Z,1.90
2018-03-17T04:13:05.588Z,1.90
2018-03-17T04:15:42.692Z,1.90
2018-03-17T04:18:21.323Z,1.80
2018-03-17T04:20:48.582Z,1.80
2018-03-17T04:23:22.628Z,1.80
2018-03-17T04:25:55.882Z,1.90
2018-03-17T04:28:28.504Z,1.90
2018-03-17T04:30:57.144Z,1.80
2018-03-17T04:33:25.359Z,1.80
2018-03-17T04:35:51.891Z,1.80
2018-03-17T04:38:22.108Z,1.80
2018-03-17T04:41:02.960Z,1.80
2018-03-17T04:43:30.434Z,1.80
2018-03-17T04:45:58.092Z,1.80
2018-03-17T04:48:31.795Z,1.80
2018-03-17T04:51:08.039Z,1.80
2018-03-17T04:53:35.395Z,1.80
2018-03-17T04:56:11.420Z,1.80
2018-03-17T04:58:41.779Z,1.80
2018-03-17T05:01:13.891Z,1.80
2018-03-17T05:03:41.717Z,1.80
2018-03-17T05:06:08.388Z,1.80
2018-03-17T05:08:41.783Z,1.80
2018-03-17T05:11:11.428Z,1.80
2018-03-17T05:13:43.972Z,1.90
2018-03-17T05:16:11.756Z,1.90
2018-03-17T05:18:38.521Z,1.80
2018-03-17T05:21:05.231Z,1.80
2018-03-17T05:23:40.841Z,1.80
2018-03-17T05:26:13.973Z,1.70
2018-03-17T05:28:43.385Z,1.70
2018-03-17T05:31:13.771Z,1.70
2018-03-17T05:33:42.078Z,1.70
2018-03-17T05:36:14.568Z,1.70
2018-03-17T05:38:48.171Z,1.70
2018-03-17T05:41:14.771Z,1.70
2018-03-17T05:44:03.212Z,1.70
2018-03-17T05:46:34.227Z,1.70
2018-03-17T05:49:01.567Z,1.70
2018-03-17T05:51:29.156Z,1.70
2018-03-17T05:53:59.312Z,1.70
2018-03-17T05:56:29.658Z,1.70
2018-03-17T05:59:07.063Z,1.70
2018-03-17T06:01:34.059Z,1.60
2018-03-17T06:04:01.409Z,1.60
2018-03-17T06:06:37.688Z,1.60
2018-03-17T06:09:05.131Z,1.60
2018-03-17T06:11:37.861Z,1.60
2018-03-17T06:14:06.240Z,1.60
2018-03-17T06:16:37.700Z,1.60
2018-03-17T06:19:06.354Z,1.60
2018-03-17T06:21:38.502Z,1.60
2018-03-17T06:24:08.872Z,1.60
2018-03-17T06:26:46.522Z,1.70
2018-03-17T06:29:19.016Z,1.70
2018-03-17T06:31:48.709Z,1.60
2018-03-17T06:34:15.319Z,1.60
2018-03-17T06:36:42.895Z,1.60
2018-03-17T06:39:12.295Z,1.70
2018-03-17T06:41:40.184Z,1.70
2018-03-17T06:44:07.591Z,1.70
2018-03-17T06:46:37.751Z,1.80
2018-03-17T06:49:13.839Z,1.80
2018-03-17T06:51:40.609Z,1.80
2018-03-17T06:54:10.656Z,1.90
2018-03-17T06:56:43.188Z,1.90
2018-03-17T06:59:16.604Z,1.90
2018-03-17T07:01:44.956Z,1.90
2018-03-17T07:04:15.171Z,1.80
2018-03-17T07:06:50.115Z,1.90
2018-03-17T07:09:18.799Z,1.90
2018-03-17T07:11:48.767Z,1.90
2018-03-17T07:14:15.352Z,1.90
2018-03-17T07:16:46.819Z,2.00
2018-03-17T07:19:16.399Z,2.00
2018-03-17T07:21:43.976Z,2.00
2018-03-17T07:24:11.463Z,2.00
2018-03-17T07:26:39.175Z,2.00
2018-03-17T07:29:07.631Z,2.10
2018-03-17T07:31:54.296Z,2.10
2018-03-17T07:34:23.203Z,2.20
2018-03-17T07:36:52.140Z,2.20
2018-03-17T07:39:24.375Z,2.20
2018-03-17T07:41:51.312Z,2.20
2018-03-17T07:44:26.212Z,2.20
2018-03-17T07:47:00.821Z,2.30
2018-03-17T07:49:30.028Z,2.30
2018-03-17T07:51:58.635Z,2.20
2018-03-17T07:54:28.415Z,2.30
2018-03-17T07:57:05.748Z,2.30
2018-03-17T07:59:38.351Z,2.20
2018-03-17T08:02:06.471Z,2.20
2018-03-17T08:04:37.872Z,2.20
2018-03-17T08:07:04.724Z,2.20
2018-03-17T08:09:31.519Z,2.20
2018-03-17T08:11:59.572Z,2.20
2018-03-17T08:14:26.983Z,2.20
2018-03-17T08:17:04.891Z,2.20
2018-03-17T08:19:33.243Z,2.20
2018-03-17T08:22:02.320Z,2.20
2018-03-17T08:24:31.118Z,2.30
2018-03-17T08:26:59.260Z,2.30
2018-03-17T08:29:26.489Z,2.30
2018-03-17T08:31:58.439Z,2.30
2018-03-17T08:34:29.209Z,2.30
2018-03-17T08:36:55.799Z,2.30
2018-03-17T08:39:27.422Z,2.20
2018-03-17T08:42:02.916Z,2.20
2018-03-17T08:44:31.636Z,2.30
2018-03-17T08:46:59.948Z,2.20
2018-03-17T08:49:31.943Z,2.30
2018-03-17T08:52:02.720Z,2.30
2018-03-17T08:54:37.444Z,2.20
2018-03-17T08:57:06.288Z,2.20
2018-03-17T08:59:40.903Z,2.20
2018-03-17T09:02:09.857Z,2.40
2018-03-17T09:05:09.556Z,2.40
2018-03-17T09:07:37.051Z,2.40
2018-03-17T09:10:04.703Z,2.30
2018-03-17T09:12:34.176Z,2.30
2018-03-17T09:15:01.052Z,2.30
2018-03-17T09:17:38.424Z,2.40
2018-03-17T09:20:09.676Z,2.40
2018-03-17T09:22:36.993Z,2.60
2018-03-17T09:25:04.892Z,2.60
2018-03-17T09:27:31.904Z,2.50
2018-03-17T09:30:00.508Z,2.40
2018-03-17T09:32:33.412Z,2.50
2018-03-17T09:35:11.460Z,2.60
2018-03-17T09:37:39.404Z,2.50
2018-03-17T09:40:07.495Z,2.60
2018-03-17T09:42:39.060Z,2.50
2018-03-17T09:45:07.587Z,2.40
2018-03-17T09:47:40.262Z,2.30
2018-03-17T09:50:20.811Z,2.40
2018-03-17T09:52:51.195Z,2.40
2018-03-17T09:55:25.887Z,2.50
2018-03-17T09:58:11.601Z,2.50
2018-03-17T10:00:39.248Z,2.40
2018-03-17T10:03:07.620Z,2.20
2018-03-17T10:05:37.604Z,2.30
2018-03-17T10:08:05.079Z,2.30
2018-03-17T10:10:34.876Z,2.30
2018-03-17T10:13:05.284Z,2.40
2018-03-17T10:15:50.859Z,2.40
2018-03-17T10:18:25.948Z,2.50
2018-03-17T10:20:54.227Z,2.50
2018-03-17T10:23:21.057Z,2.40
2018-03-17T10:25:51.224Z,2.40
2018-03-17T10:28:33.923Z,2.50
2018-03-17T10:31:02.051Z,2.40
2018-03-17T10:33:38.917Z,2.50
2018-03-17T10:36:15.153Z,2.50
2018-03-17T10:38:43.427Z,2.50
2018-03-17T10:41:10.784Z,2.60
2018-03-17T10:43:44.329Z,2.60
2018-03-17T10:46:24.459Z,2.60
2018-03-17T10:49:08.107Z,2.60
2018-03-17T10:51:38.471Z,2.60
2018-03-17T10:54:09.432Z,2.60
2018-03-17T10:56:45.852Z,2.60
2018-03-17T10:59:17.584Z,2.70
2018-03-17T11:01:44.184Z,2.70
2018-03-17T11:04:18.286Z,2.70
2018-03-17T11:06:46.480Z,2.70
2018-03-17T11:09:20.301Z,2.70
2018-03-17T11:11:47.052Z,2.70
2018-03-17T11:14:17.585Z,2.70
2018-03-17T11:16:46.004Z,2.60
2018-03-17T11:19:13.332Z,2.50
2018-03-17T11:21:46.058Z,2.50
2018-03-17T11:24:18.216Z,2.60
2018-03-17T11:26:49.326Z,2.60
2018-03-17T11:29:23.976Z,2.60
2018-03-17T11:31:52.627Z,2.40
2018-03-17T11:34:35.871Z,2.40
2018-03-17T11:37:08.177Z,2.50
2018-03-17T11:39:42.846Z,2.50
2018-03-17T11:42:09.791Z,2.50
2018-03-17T11:44:36.387Z,2.80
2018-03-17T11:47:04.968Z,2.80
2018-03-17T11:49:38.531Z,2.90
2018-03-17T11:52:06.867Z,2.90
2018-03-17T11:54:35.123Z,2.80
2018-03-17T11:57:01.792Z,2.60
2018-03-17T11:59:36.502Z,2.70
2018-03-17T12:02:05.156Z,2.60
2018-03-17T12:04:43.339Z,2.40
2018-03-17T12:07:13.663Z,2.30
2018-03-17T12:09:41.204Z,2.30
2018-03-17T12:12:08.937Z,2.30
2018-03-17T12:14:43.431Z,2.40
2018-03-17T12:17:33.168Z,2.40
2018-03-17T12:20:05.716Z,2.30
2018-03-17T12:22:39.045Z,2.30
2018-03-17T12:25:09.272Z,2.30
2018-03-17T12:27:37.575Z,2.30
2018-03-17T12:30:13.654Z,2.20
2018-03-17T12:32:48.499Z,2.10
2018-03-17T12:35:28.111Z,2.10
2018-03-17T12:38:05.462Z,2.10
2018-03-17T12:40:34.234Z,2.10
2018-03-17T12:43:01.971Z,2.10
2018-03-17T12:45:53.912Z,2.00
2018-03-17T12:48:24.466Z,2.00
2018-03-17T12:50:58.453Z,1.90
2018-03-17T12:53:27.691Z,1.90
2018-03-17T12:56:12.218Z,1.80
2018-03-17T12:58:51.711Z,1.80
2018-03-17T13:01:22.199Z,1.80
2018-03-17T13:03:49.085Z,1.80
2018-03-17T13:06:15.841Z,1.80
2018-03-17T13:08:42.610Z,1.80
2018-03-17T13:11:10.324Z,1.80
2018-03-17T13:13:38.541Z,1.90
2018-03-17T13:16:06.216Z,1.80
2018-03-17T13:18:33.551Z,1.80
2018-03-17T13:21:04.528Z,1.80
2018-03-17T13:23:31.480Z,1.80
2018-03-17T13:26:00.943Z,1.90
2018-03-17T13:28:30.958Z,1.90
2018-03-17T13:31:00.388Z,1.80
2018-03-17T13:33:27.019Z,1.80
2018-03-17T13:36:09.667Z,1.80
2018-03-17T13:38:41.861Z,1.70
2018-03-17T13:41:09.891Z,1.80
2018-03-17T13:43:43.603Z,1.80
2018-03-17T13:46:10.919Z,1.80
2018-03-17T13:48:38.156Z,1.70
2018-03-17T13:51:08.240Z,1.80
2018-03-17T13:53:35.568Z,1.80
2018-03-17T13:56:02.415Z,1.80
2018-03-17T13:58:34.942Z,1.80
2018-03-17T14:01:05.552Z,1.70
2018-03-17T14:03:43.101Z,1.70
2018-03-17T14:06:12.072Z,1.60
2018-03-17T14:09:01.430Z,1.60
2018-03-17T14:11:28.051Z,1.60
2018-03-17T14:14:20.435Z,1.50
2018-03-17T14:16:47.667Z,1.50
2018-03-17T14:19:18.723Z,1.50
2018-03-17T14:21:47.376Z,1.50
2018-03-17T14:24:14.664Z,1.50
2018-03-17T14:26:41.303Z,1.50
2018-03-17T14:29:09.803Z,1.50
2018-03-17T14:31:38.076Z,1.40
2018-03-17T14:34:06.531Z,1.40
2018-03-17T14:36:38.198Z,1.40
2018-03-17T14:39:08.512Z,1.30
2018-03-17T14:41:42.488Z,1.30
2018-03-17T14:44:10.188Z,1.40
2018-03-17T14:46:39.526Z,1.40
2018-03-17T14:49:09.450Z,1.40
2018-03-17T14:51:39.660Z,1.40
2018-03-17T14:54:09.523Z,1.40
2018-03-17T14:56:36.966Z,1.40
2018-03-17T14:59:07.749Z,1.30
2018-03-17T15:01:36.670Z,1.30
2018-03-17T15:04:03.868Z,1.30
2018-03-17T15:06:38.522Z,1.30
2018-03-17T15:09:08.285Z,1.20
2018-03-17T15:11:38.763Z,1.30
2018-03-17T15:14:09.432Z,1.20
2018-03-17T15:16:40.099Z,1.20
2018-03-17T15:19:06.773Z,1.20
2018-03-17T15:21:42.513Z,1.20
2018-03-17T15:24:13.789Z,1.20
2018-03-17T15:26:40.307Z,1.20
2018-03-17T15:29:09.688Z,1.20
2018-03-17T15:31:43.235Z,1.20
2018-03-17T15:34:11.612Z,1.10
2018-03-17T15:36:42.656Z,1.00
2018-03-17T15:39:15.939Z,1.00
2018-03-17T15:41:46.531Z,1.00
2018-03-17T15:44:20.627Z,1.00
2018-03-17T15:46:50.520Z,1.00
2018-03-17T15:49:17.798Z,0.90
2018-03-17T15:51:45.716Z,0.90
2018-03-17T15:54:13.320Z,0.90
2018-03-17T15:56:40.015Z,0.90
2018-03-17T15:59:07.861Z,0.80
2018-03-17T16:01:44.743Z,0.80
2018-03-17T16:04:16.468Z,0.80
2018-03-17T16:06:51.883Z,0.80
2018-03-17T16:09:20.318Z,0.80
2018-03-17T16:11:47.843Z,0.70
2018-03-17T16:14:16.383Z,0.70
2018-03-17T16:16:44.777Z,0.80
2018-03-17T16:19:18.989Z,0.80
2018-03-17T16:21:46.748Z,0.80
2018-03-17T16:24:14.315Z,0.70
2018-03-17T16:26:42.620Z,0.60
2018-03-17T16:29:21.711Z,0.60
2018-03-17T16:31:56.838Z,0.60
2018-03-17T16:34:35.699Z,0.70
2018-03-17T16:37:09.041Z,0.70
2018-03-17T16:39:36.771Z,0.70
2018-03-17T16:42:09.677Z,0.70
2018-03-17T16:44:38.765Z,0.70
2018-03-17T16:47:06.435Z,0.60
2018-03-17T16:49:38.995Z,0.60
2018-03-17T16:52:09.972Z,0.50
2018-03-17T16:54:41.887Z,0.50
2018-03-17T16:57:10.243Z,0.50
2018-03-17T16:59:39.569Z,0.50
2018-03-17T17:02:12.168Z,0.40
2018-03-17T17:04:42.621Z,0.40
2018-03-17T17:07:12.389Z,0.40
2018-03-17T17:09:39.970Z,0.40
2018-03-17T17:12:06.987Z,0.40
2018-03-17T17:14:35.551Z,0.30
2018-03-17T17:17:16.445Z,0.30
2018-03-17T17:19:47.056Z,0.20
2018-03-17T17:22:15.744Z,0.20
2018-03-17T17:24:43.220Z,0.20
2018-03-17T17:27:16.324Z,0.20
2018-03-17T17:29:49.587Z,0.20
2018-03-17T17:32:21.848Z,0.20
2018-03-17T17:34:56.248Z,0.20
2018-03-17T17:37:23.511Z,0.10
2018-03-17T17:39:57.268Z,0.20
2018-03-17T17:42:25.985Z,0.20
2018-03-17T17:45:02.095Z,0.10
2018-03-17T17:47:36.484Z,0.10
2018-03-17T17:50:06.475Z,0.20
2018-03-17T17:52:34.092Z,0.20
2018-03-17T17:55:09.391Z,0.20
2018-03-17T17:57:37.900Z,0.20
2018-03-17T18:00:11.460Z,0.20
2018-03-17T18:02:41.092Z,0.20
2018-03-17T18:05:09.533Z,0.20
2018-03-17T18:07:37.301Z,0.20
2018-03-17T18:10:12.554Z,0.20
2018-03-17T18:12:44.236Z,0.20
2018-03-17T18:15:13.813Z,0.20
2018-03-17T18:17:40.571Z,0.20
2018-03-17T18:20:11.143Z,0.20
2018-03-17T18:22:39.211Z,0.20
2018-03-17T18:25:11.412Z,0.20
2018-03-17T18:27:38.999Z,0.20
2018-03-17T18:30:11.508Z,0.20
2018-03-17T18:32:39.716Z,0.20
2018-03-17T18:35:06.494Z,0.20
2018-03-17T18:37:33.840Z,0.20
2018-03-17T18:40:04.257Z,0.20
2018-03-17T18:42:31.759Z,0.20
2018-03-17T18:45:03.679Z,0.20
2018-03-17T18:47:37.297Z,0.20
2018-03-17T18:50:12.618Z,0.20
2018-03-17T18:52:39.259Z,0.20
2018-03-17T18:55:08.817Z,0.20
2018-03-17T18:57:36.315Z,0.20
2018-03-17T19:00:04.740Z,0.20
2018-03-17T19:02:32.333Z,0.20
2018-03-17T19:05:06.977Z,0.20
2018-03-17T19:07:36.235Z,0.20
2018-03-17T19:10:04.825Z,0.20
2018-03-17T19:12:32.371Z,0.20
2018-03-17T19:15:09.044Z,0.20
2018-03-17T19:17:44.396Z,0.20
2018-03-17T19:20:37.332Z,0.20
2018-03-17T19:23:06.824Z,0.10
2018-03-17T19:25:41.473Z,0.10
2018-03-17T19:28:15.605Z,0.10
2018-03-17T19:30:42.958Z,0.10
2018-03-17T19:33:10.777Z,0.10
2018-03-17T19:35:39.814Z,0.10
2018-03-17T19:38:13.573Z,0.10
2018-03-17T19:40:42.437Z,0.10
2018-03-17T19:43:14.340Z,0.10
2018-03-17T19:45:42.068Z,0.00
2018-03-17T19:48:12.001Z,0.00
2018-03-17T19:50:38.697Z,0.00
2018-03-17T19:53:13.601Z,0.00
2018-03-17T19:55:40.430Z,0.00
2018-03-17T19:58:12.450Z,-0.10
2018-03-17T20:00:54.019Z,-0.10
2018-03-17T20:03:27.548Z,-0.10
2018-03-17T20:05:59.440Z,-0.10
2018-03-17T20:08:28.024Z,-0.10
2018-03-17T20:10:54.934Z,-0.10
2018-03-17T20:13:22.487Z,-0.10
2018-03-17T20:15:49.137Z,0.00
2018-03-17T20:18:16.688Z,-0.10
2018-03-17T20:20:58.079Z,-0.10
2018-03-17T20:23:27.103Z,-0.10
2018-03-17T20:25:57.488Z,-0.20
2018-03-17T20:28:40.471Z,-0.20
2018-03-17T20:31:08.977Z,-0.30
2018-03-17T20:33:37.591Z,-0.40
2018-03-17T20:36:31.823Z,-0.50
2018-03-17T20:39:10.744Z,-0.50
2018-03-17T20:41:42.491Z,-0.50
2018-03-17T20:44:09.950Z,-0.60
2018-03-17T20:46:37.512Z,-0.60
2018-03-17T20:49:13.323Z,-0.50
2018-03-17T20:51:45.745Z,-0.50
2018-03-17T20:54:18.156Z,-0.60
2018-03-17T20:56:51.420Z,-0.50
2018-03-17T20:59:25.175Z,-0.60
2018-03-17T21:01:59.803Z,-0.60
2018-03-17T21:04:32.360Z,-0.60
2018-03-17T21:07:05.771Z,-0.60
2018-03-17T21:09:41.800Z,-0.70
2018-03-17T21:12:17.264Z,-0.70
2018-03-17T21:14:47.583Z,-0.70
2018-03-17T21:17:15.547Z,-0.70
2018-03-17T21:19:42.942Z,-0.60
2018-03-17T21:22:17.965Z,-0.70
2018-03-17T21:24:45.633Z,-0.60
2018-03-17T21:27:13.643Z,-0.70
2018-03-17T21:29:43.081Z,-0.70
2018-03-17T21:32:12.781Z,-0.80
2018-03-17T21:34:44.347Z,-0.90
2018-03-17T21:37:17.494Z,-0.80
2018-03-17T21:39:51.444Z,-0.90
2018-03-17T21:42:25.048Z,-0.80
2018-03-17T21:44:57.852Z,-0.90
2018-03-17T21:47:29.288Z,-1.10
2018-03-17T21:49:57.267Z,-1.10
2018-03-17T21:52:37.778Z,-1.10
2018-03-17T21:55:05.243Z,-1.20
2018-03-17T21:57:33.532Z,-1.20
2018-03-17T22:00:05.528Z,-1.30
2018-03-17T22:02:35.296Z,-1.50
2018-03-17T22:05:05.595Z,-1.60
2018-03-17T22:07:32.199Z,-1.60
2018-03-17T22:10:01.204Z,-1.60
2018-03-17T22:12:42.418Z,-1.70
2018-03-17T22:15:19.375Z,-1.70
2018-03-17T22:17:57.994Z,-1.70
2018-03-17T22:20:29.467Z,-1.70
2018-03-17T22:23:02.139Z,-1.80
2018-03-17T22:25:37.787Z,-1.80
2018-03-17T22:28:08.883Z,-1.80
2018-03-17T22:30:40.623Z,-1.80
2018-03-17T22:33:08.179Z,-1.80
2018-03-17T22:35:43.117Z,-1.90
2018-03-17T22:38:10.794Z,-1.80
2018-03-17T22:40:43.387Z,-1.80
2018-03-17T22:43:16.671Z,-1.70
2018-03-17T22:45:46.679Z,-1.70
2018-03-17T22:48:19.387Z,-1.70
2018-03-17T22:50:52.980Z,-1.70
2018-03-17T22:53:21.420Z,-1.60
2018-03-17T22:55:56.500Z,-1.60
2018-03-17T22:58:24.111Z,-1.60
2018-03-17T23:00:51.471Z,-1.70
2018-03-17T23:03:27.743Z,-1.70
2018-03-17T23:05:56.435Z,-1.70
2018-03-17T23:08:24.330Z,-1.80
2018-03-17T23:10:51.816Z,-1.80
2018-03-17T23:13:21.984Z,-1.90
2018-03-17T23:15:50.608Z,-2.00
2018-03-17T23:18:22.818Z,-2.30
2018-03-17T23:20:50.115Z,-2.30
2018-03-17T23:23:22.473Z,-2.30
2018-03-17T23:25:51.139Z,-2.30
2018-03-17T23:28:25.517Z,-2.40
2018-03-17T23:30:55.075Z,-2.30
2018-03-17T23:33:37.339Z,-2.40
2018-03-17T23:36:11.195Z,-2.40
2018-03-17T23:38:38.835Z,-2.50
2018-03-17T23:41:08.292Z,-2.60
2018-03-17T23:43:44.032Z,-2.60
2018-03-17T23:46:17.406Z,-2.60
2018-03-17T23:48:46.752Z,-2.60
2018-03-17T23:51:17.887Z,-2.60
2018-03-17T23:53:44.575Z,-2.60
2018-03-17T23:56:17.888Z,-2.50
2018-03-17T23:58:45.527Z,-2.50
